createdAt,value
2019-03-13T00:01:04.681Z,131.32
2019-03-13T00:03:31.986Z,130.80
2019-03-13T00:05:59.029Z,130.12
2019-03-13T00:08:26.110Z,128.70
2019-03-13T00:10:53.974Z,128.65
2019-03-13T00:13:21.094Z,127.55
2019-03-13T00:15:49.945Z,128.25
2019-03-13T00:18:17.258Z,128.32
2019-03-13T00:20:44.292Z,128.35
2019-03-13T00:23:13.199Z,128.10
2019-03-13T00:25:40.656Z,130.20
2019-03-13T00:28:07.718Z,127.55
2019-03-13T00:30:35.255Z,128.00
2019-03-13T00:33:02.311Z,128.40
2019-03-13T00:35:29.467Z,128.42
2019-03-13T00:37:56.516Z,127.92
2019-03-13T00:40:23.630Z,127.40
2019-03-13T00:42:50.691Z,128.72
2019-03-13T00:45:17.741Z,128.90
2019-03-13T00:47:45.215Z,128.20
2019-03-13T00:50:22.176Z,128.07
2019-03-13T00:52:51.143Z,128.47
2019-03-13T00:55:18.179Z,129.72
2019-03-13T00:57:46.376Z,128.75
2019-03-13T01:00:16.721Z,127.53
2019-03-13T01:02:44.841Z,127.42
2019-03-13T01:05:22.014Z,128.82
2019-03-13T01:07:49.432Z,127.55
2019-03-13T01:10:16.453Z,128.18
2019-03-13T01:12:43.525Z,128.75
2019-03-13T01:15:11.081Z,127.15
2019-03-13T01:17:39.218Z,128.62
2019-03-13T01:20:07.080Z,128.70
2019-03-13T01:22:34.565Z,128.18
2019-03-13T01:25:01.649Z,128.23
2019-03-13T01:27:32.728Z,127.20
2019-03-13T01:29:59.776Z,127.92
2019-03-13T01:32:38.898Z,128.42
2019-03-13T01:35:12.877Z,127.27
2019-03-13T01:37:40.595Z,128.38
2019-03-13T01:40:09.344Z,127.27
2019-03-13T01:42:36.397Z,127.65
2019-03-13T01:45:04.304Z,127.32
2019-03-13T01:47:32.394Z,127.45
2019-03-13T01:49:59.870Z,127.80
2019-03-13T01:52:28.385Z,127.62
2019-03-13T01:54:55.467Z,126.67
2019-03-13T01:57:23.096Z,127.85
2019-03-13T01:59:50.133Z,130.00
2019-03-13T02:02:17.231Z,126.85
2019-03-13T02:04:44.336Z,127.53
2019-03-13T02:07:11.707Z,128.20
2019-03-13T02:09:38.823Z,126.87
2019-03-13T02:12:05.883Z,127.20
2019-03-13T02:14:33.319Z,126.75
2019-03-13T02:17:01.132Z,127.60
2019-03-13T02:19:28.170Z,129.27
2019-03-13T02:21:55.684Z,127.75
2019-03-13T02:24:22.771Z,127.45
2019-03-13T02:26:49.833Z,127.67
2019-03-13T02:29:17.646Z,127.02
2019-03-13T02:31:44.702Z,126.62
2019-03-13T02:34:13.531Z,128.18
2019-03-13T02:36:40.659Z,127.53
2019-03-13T02:39:07.740Z,129.03
2019-03-13T02:41:35.160Z,127.07
2019-03-13T02:44:02.652Z,128.02
2019-03-13T02:46:29.802Z,127.85
2019-03-13T02:48:56.857Z,127.72
2019-03-13T02:51:24.001Z,128.45
2019-03-13T02:53:51.060Z,128.02
2019-03-13T02:56:18.381Z,127.75
2019-03-13T02:58:45.947Z,128.50
2019-03-13T03:01:41.681Z,127.82
2019-03-13T03:04:10.116Z,127.15
2019-03-13T03:06:37.364Z,128.23
2019-03-13T03:09:07.207Z,127.42
2019-03-13T03:11:36.505Z,127.27
2019-03-13T03:14:03.782Z,126.60
2019-03-13T03:16:30.809Z,126.60
2019-03-13T03:18:57.846Z,127.50
2019-03-13T03:21:24.872Z,126.90
2019-03-13T03:23:52.208Z,126.75
2019-03-13T03:26:19.391Z,127.55
2019-03-13T03:28:46.463Z,127.50
2019-03-13T03:31:13.528Z,128.18
2019-03-13T03:33:40.577Z,127.70
2019-03-13T03:36:07.912Z,127.92
2019-03-13T03:38:35.118Z,127.85
2019-03-13T03:41:02.927Z,126.70
2019-03-13T03:43:39.964Z,126.87
2019-03-13T03:45:58.976Z,127.07
2019-03-13T03:48:26.039Z,127.80
2019-03-13T03:50:53.115Z,127.47
2019-03-13T03:53:20.143Z,127.60
2019-03-13T03:55:56.190Z,128.12
2019-03-13T03:58:24.105Z,127.92
2019-03-13T04:00:51.431Z,127.62
2019-03-13T04:03:18.468Z,128.38
2019-03-13T04:05:45.517Z,128.82
2019-03-13T04:08:13.317Z,127.85
2019-03-13T04:10:40.331Z,128.20
2019-03-13T04:13:07.431Z,127.60
2019-03-13T04:15:36.665Z,127.47
2019-03-13T04:18:05.563Z,127.72
2019-03-13T04:20:32.643Z,128.05
2019-03-13T04:23:00.226Z,126.87
2019-03-13T04:25:35.154Z,127.87
2019-03-13T04:28:02.538Z,127.38
2019-03-13T04:30:29.558Z,128.50
2019-03-13T04:32:56.624Z,127.55
2019-03-13T04:35:24.005Z,127.35
2019-03-13T04:37:51.037Z,127.97
2019-03-13T04:40:18.106Z,128.42
2019-03-13T04:42:45.153Z,128.53
2019-03-13T04:45:12.197Z,128.65
2019-03-13T04:47:41.047Z,128.15
2019-03-13T04:50:09.170Z,128.10
2019-03-13T04:52:36.201Z,129.00
2019-03-13T04:55:03.701Z,128.53
2019-03-13T04:57:31.432Z,127.50
2019-03-13T04:59:58.478Z,127.65
2019-03-13T05:02:25.516Z,128.93
2019-03-13T05:04:53.025Z,128.42
2019-03-13T05:07:20.073Z,128.18
2019-03-13T05:09:47.157Z,129.65
2019-03-13T05:12:14.544Z,128.10
2019-03-13T05:14:41.608Z,128.00
2019-03-13T05:17:09.854Z,128.25
2019-03-13T05:19:36.894Z,129.20
2019-03-13T05:22:03.966Z,130.93
2019-03-13T05:24:31.052Z,128.82
2019-03-13T05:26:59.253Z,129.18
2019-03-13T05:29:26.587Z,129.07
2019-03-13T05:31:53.687Z,128.55
2019-03-13T05:34:22.527Z,130.43
2019-03-13T05:36:49.554Z,129.63
2019-03-13T05:39:17.092Z,130.47
2019-03-13T05:41:44.171Z,128.78
2019-03-13T05:44:11.206Z,130.90
2019-03-13T05:46:38.320Z,128.82
2019-03-13T05:49:05.372Z,129.05
2019-03-13T05:51:33.619Z,129.78
2019-03-13T05:54:00.762Z,129.87
2019-03-13T05:56:27.769Z,130.00
2019-03-13T05:58:54.920Z,130.45
2019-03-13T06:01:24.242Z,130.25
2019-03-13T06:03:51.339Z,132.70
2019-03-13T06:06:18.349Z,130.70
2019-03-13T06:08:45.569Z,133.32
2019-03-13T06:11:12.593Z,130.37
2019-03-13T06:13:39.631Z,131.90
2019-03-13T06:16:07.061Z,131.82
2019-03-13T06:18:35.483Z,131.20
2019-03-13T06:21:02.518Z,129.72
2019-03-13T06:23:29.598Z,129.75
2019-03-13T06:25:56.683Z,130.75
2019-03-13T06:28:24.837Z,130.37
2019-03-13T06:30:52.337Z,130.47
2019-03-13T06:33:19.392Z,129.68
2019-03-13T06:35:46.423Z,130.30
2019-03-13T06:38:13.887Z,130.43
2019-03-13T06:40:40.951Z,129.20
2019-03-13T06:43:07.999Z,129.03
2019-03-13T06:45:35.573Z,128.82
2019-03-13T06:48:02.594Z,128.10
2019-03-13T06:50:29.656Z,129.05
2019-03-13T06:52:57.119Z,128.00
2019-03-13T06:55:24.362Z,128.20
2019-03-13T06:57:51.443Z,128.00
2019-03-13T07:00:41.500Z,130.25
2019-03-13T07:03:17.706Z,130.07
2019-03-13T07:05:54.801Z,129.05
2019-03-13T07:08:32.248Z,130.32
2019-03-13T07:11:14.821Z,130.47
2019-03-13T07:13:58.245Z,131.93
2019-03-13T07:16:43.266Z,132.00
2019-03-13T07:19:39.094Z,132.05
2019-03-13T07:22:29.120Z,131.10
2019-03-13T07:25:16.698Z,131.43
2019-03-13T07:28:17.785Z,131.85
2019-03-13T07:31:02.939Z,131.85
2019-03-13T07:33:44.821Z,131.12
2019-03-13T07:36:22.938Z,130.35
2019-03-13T07:39:09.646Z,130.67
2019-03-13T07:41:47.697Z,130.80
2019-03-13T07:44:32.912Z,131.10
2019-03-13T07:47:18.431Z,131.97
2019-03-13T07:49:58.263Z,133.10
2019-03-13T07:52:45.866Z,132.32
2019-03-13T07:55:35.054Z,132.27
2019-03-13T07:58:24.957Z,132.87
2019-03-13T08:01:15.242Z,134.97
2019-03-13T08:04:00.820Z,133.00
2019-03-13T08:06:35.614Z,133.20
2019-03-13T08:09:25.359Z,134.22
2019-03-13T08:12:07.278Z,131.70
2019-03-13T08:14:50.969Z,131.20
2019-03-13T08:17:53.180Z,132.50
2019-03-13T08:20:46.440Z,131.82
2019-03-13T08:23:45.748Z,131.52
2019-03-13T08:33:54.653Z,134.90
2019-03-13T08:37:01.161Z,132.60
2019-03-13T08:39:46.759Z,134.65
2019-03-13T08:43:08.157Z,132.93
2019-03-13T08:46:15.843Z,133.10
2019-03-13T08:48:57.580Z,134.70
2019-03-13T08:51:37.678Z,132.78
2019-03-13T08:54:16.785Z,133.63
2019-03-13T08:57:04.010Z,133.67
2019-03-13T09:00:02.003Z,132.80
2019-03-13T09:02:59.035Z,131.72
2019-03-13T09:05:46.095Z,132.03
2019-03-13T09:08:33.323Z,131.32
2019-03-13T09:11:20.113Z,131.67
2019-03-13T09:14:16.651Z,133.12
2019-03-13T09:17:15.420Z,133.70
2019-03-13T09:20:21.751Z,132.47
2019-03-13T09:23:11.548Z,132.67
2019-03-13T09:25:56.439Z,132.40
2019-03-13T09:28:43.926Z,131.97
2019-03-13T09:31:25.609Z,131.15
2019-03-13T09:34:08.700Z,132.05
2019-03-13T09:36:51.736Z,130.70
2019-03-13T09:39:28.569Z,131.50
2019-03-13T09:42:07.724Z,131.35
2019-03-13T09:44:57.083Z,131.47
2019-03-13T09:47:35.519Z,132.27
2019-03-13T09:50:29.053Z,131.63
2019-03-13T09:53:07.850Z,132.27
2019-03-13T09:56:00.636Z,133.03
2019-03-13T09:58:50.340Z,131.72
2019-03-13T10:01:49.109Z,132.70
2019-03-13T10:04:32.221Z,133.35
2019-03-13T10:07:35.659Z,135.52
2019-03-13T10:10:29.073Z,132.97
2019-03-13T10:13:17.708Z,132.27
2019-03-13T10:16:13.903Z,130.70
2019-03-13T10:19:09.624Z,131.45
2019-03-13T10:21:55.680Z,132.25
2019-03-13T10:24:41.347Z,132.60
2019-03-13T10:27:26.786Z,132.20
2019-03-13T10:30:11.122Z,132.97
2019-03-13T10:32:56.890Z,134.27
2019-03-13T10:35:32.103Z,134.25
2019-03-13T10:38:17.819Z,135.70
2019-03-13T10:40:54.357Z,134.10
2019-03-13T10:43:46.723Z,134.18
2019-03-13T10:46:32.188Z,134.70
2019-03-13T10:49:17.168Z,134.07
2019-03-13T10:51:56.022Z,134.80
2019-03-13T10:54:31.673Z,134.78
2019-03-13T10:57:18.354Z,133.95
2019-03-13T11:00:07.841Z,133.82
2019-03-13T11:02:53.886Z,133.72
2019-03-13T11:05:34.587Z,134.37
2019-03-13T11:08:24.254Z,136.45
2019-03-13T11:11:11.707Z,135.72
2019-03-13T11:14:15.674Z,134.87
2019-03-13T11:17:02.624Z,135.48
2019-03-13T11:19:58.521Z,134.32
2019-03-13T11:22:36.689Z,134.07
2019-03-13T11:25:30.244Z,135.00
2019-03-13T11:28:05.234Z,133.63
2019-03-13T11:30:58.290Z,134.18
2019-03-13T11:33:35.264Z,134.82
2019-03-13T11:36:08.763Z,134.12
2019-03-13T11:38:55.541Z,132.78
2019-03-13T11:41:45.657Z,134.12
2019-03-13T11:44:35.108Z,134.47
2019-03-13T11:47:42.203Z,134.60
2019-03-13T11:50:36.664Z,133.87
2019-03-13T11:53:32.128Z,133.27
2019-03-13T11:56:11.811Z,134.93
2019-03-13T11:58:58.508Z,133.25
2019-03-13T12:01:48.189Z,134.95
2019-03-13T12:04:28.952Z,132.72
2019-03-13T12:07:22.028Z,134.65
2019-03-13T12:09:57.152Z,133.80
2019-03-13T12:12:55.896Z,132.78
2019-03-13T12:15:35.942Z,133.03
2019-03-13T12:18:17.623Z,133.47
2019-03-13T12:21:00.706Z,133.47
2019-03-13T12:23:51.343Z,133.55
2019-03-13T12:26:25.280Z,132.35
2019-03-13T12:29:09.467Z,133.15
2019-03-13T12:31:59.216Z,133.93
2019-03-13T12:34:44.560Z,134.45
2019-03-13T12:37:34.455Z,135.80
2019-03-13T12:40:19.749Z,135.03
2019-03-13T12:43:15.885Z,133.67
2019-03-13T12:46:18.883Z,132.95
2019-03-13T12:49:08.766Z,133.55
2019-03-13T12:51:54.361Z,133.00
2019-03-13T12:54:45.075Z,133.63
2019-03-13T12:57:30.440Z,133.72
2019-03-13T13:00:32.451Z,134.22
2019-03-13T13:03:18.331Z,133.82
2019-03-13T13:05:58.272Z,132.97
2019-03-13T13:08:54.102Z,131.93
2019-03-13T13:11:39.771Z,137.07
2019-03-13T13:14:14.581Z,136.12
2019-03-13T13:16:59.807Z,137.52
2019-03-13T13:19:26.903Z,136.32
2019-03-13T13:21:54.168Z,137.60
2019-03-13T13:24:21.324Z,136.88
2019-03-13T13:26:50.211Z,134.35
2019-03-13T13:29:17.595Z,135.55
2019-03-13T13:31:44.683Z,135.18
2019-03-13T13:34:12.442Z,136.12
2019-03-13T13:36:39.624Z,134.63
2019-03-13T13:39:08.125Z,134.52
2019-03-13T13:41:40.619Z,135.43
2019-03-13T13:44:08.106Z,134.55
2019-03-13T13:46:38.235Z,133.85
2019-03-13T13:49:06.502Z,135.65
2019-03-13T13:51:38.382Z,133.27
2019-03-13T13:54:05.663Z,132.90
2019-03-13T13:56:33.102Z,133.65
2019-03-13T13:59:01.704Z,133.00
2019-03-13T14:01:29.696Z,133.30
2019-03-13T14:03:58.097Z,133.60
2019-03-13T14:06:25.392Z,133.95
2019-03-13T14:08:52.587Z,133.25
2019-03-13T14:11:21.191Z,133.60
2019-03-13T14:13:48.711Z,133.27
2019-03-13T14:16:15.946Z,132.95
2019-03-13T14:18:43.762Z,134.47
2019-03-13T14:21:12.070Z,134.67
2019-03-13T14:23:39.402Z,134.35
2019-03-13T14:26:08.076Z,133.75
2019-03-13T14:28:36.390Z,133.60
2019-03-13T14:31:04.148Z,133.65
2019-03-13T14:33:31.705Z,132.55
2019-03-13T14:35:58.816Z,132.90
2019-03-13T14:38:25.871Z,133.80
2019-03-13T14:40:53.866Z,133.50
2019-03-13T14:43:21.013Z,133.57
2019-03-13T14:45:52.123Z,131.63
2019-03-13T14:48:21.745Z,132.67
2019-03-13T14:50:48.881Z,131.65
2019-03-13T14:53:16.003Z,131.72
2019-03-13T14:55:43.202Z,133.25
2019-03-13T14:58:10.226Z,133.07
2019-03-13T15:00:37.937Z,132.52
2019-03-13T15:03:05.042Z,133.40
2019-03-13T15:05:32.105Z,131.32
2019-03-13T15:07:59.622Z,133.30
2019-03-13T15:10:29.555Z,132.40
2019-03-13T15:12:56.626Z,134.72
2019-03-13T15:15:23.732Z,136.28
2019-03-13T15:17:53.754Z,134.55
2019-03-13T15:20:23.549Z,134.85
2019-03-13T15:22:55.979Z,132.93
2019-03-13T15:25:28.607Z,135.43
2019-03-13T15:27:58.086Z,134.93
2019-03-13T15:30:25.753Z,134.95
2019-03-13T15:32:58.345Z,136.52
2019-03-13T15:35:25.781Z,133.72
2019-03-13T15:37:52.943Z,133.90
2019-03-13T15:40:20.235Z,134.27
2019-03-13T15:42:48.376Z,133.18
2019-03-13T15:45:16.900Z,133.55
2019-03-13T15:47:43.970Z,133.80
2019-03-13T15:50:12.548Z,132.35
2019-03-13T15:52:39.708Z,134.95
2019-03-13T15:55:08.002Z,133.03
2019-03-13T15:57:35.137Z,132.80
2019-03-13T16:00:05.559Z,132.47
2019-03-13T16:02:33.923Z,134.60
2019-03-13T16:05:01.839Z,133.87
2019-03-13T16:07:29.024Z,133.85
2019-03-13T16:09:57.081Z,133.00
2019-03-13T16:12:24.249Z,135.95
2019-03-13T16:14:51.313Z,135.30
2019-03-13T16:17:18.403Z,133.05
2019-03-13T16:19:46.070Z,131.43
2019-03-13T16:22:14.193Z,132.55
2019-03-13T16:24:41.399Z,133.87
2019-03-13T16:27:08.663Z,133.63
2019-03-13T16:29:35.708Z,134.15
2019-03-13T16:32:02.968Z,136.07
2019-03-13T16:34:30.438Z,133.57
2019-03-13T16:36:57.587Z,135.45
2019-03-13T16:39:24.669Z,133.70
2019-03-13T16:41:52.006Z,133.80
2019-03-13T16:44:20.237Z,133.47
2019-03-13T16:46:47.317Z,133.27
2019-03-13T16:49:15.013Z,134.72
2019-03-13T16:51:42.059Z,134.87
2019-03-13T16:54:09.418Z,133.18
2019-03-13T16:56:37.188Z,133.22
2019-03-13T16:59:04.261Z,131.78
2019-03-13T17:01:31.861Z,132.57
2019-03-13T17:03:59.265Z,132.57
2019-03-13T17:06:26.316Z,133.05
2019-03-13T17:08:53.438Z,132.65
2019-03-13T17:11:20.952Z,132.52
2019-03-13T17:13:48.289Z,132.22
2019-03-13T17:16:15.534Z,132.03
2019-03-13T17:18:42.877Z,132.07
2019-03-13T17:21:10.155Z,132.30
2019-03-13T17:23:39.460Z,133.00
2019-03-13T17:26:06.829Z,134.07
2019-03-13T17:28:34.069Z,135.52
2019-03-13T17:31:01.228Z,134.90
2019-03-13T17:33:28.907Z,135.22
2019-03-13T17:35:56.053Z,134.87
2019-03-13T17:38:23.170Z,136.20
2019-03-13T17:40:50.158Z,132.70
2019-03-13T17:43:17.174Z,131.87
2019-03-13T17:45:44.159Z,133.07
2019-03-13T17:48:11.549Z,131.95
2019-03-13T17:50:38.612Z,131.95
2019-03-13T17:53:05.577Z,130.47
2019-03-13T17:55:32.619Z,131.78
2019-03-13T17:57:59.632Z,134.50
2019-03-13T18:00:29.702Z,130.43
2019-03-13T18:02:56.751Z,132.52
2019-03-13T18:05:23.985Z,133.70
2019-03-13T18:07:51.000Z,133.85
2019-03-13T18:10:17.989Z,133.75
2019-03-13T18:12:44.963Z,133.37
2019-03-13T18:15:13.766Z,132.22
2019-03-13T18:17:42.788Z,132.15
2019-03-13T18:20:11.974Z,133.90
2019-03-13T18:22:38.976Z,133.63
2019-03-13T18:25:06.317Z,133.52
2019-03-13T18:27:33.990Z,132.52
2019-03-13T18:30:08.091Z,133.37
2019-03-13T18:32:41.653Z,132.47
2019-03-13T18:35:04.479Z,132.80
2019-03-13T18:37:31.707Z,133.27
2019-03-13T18:40:00.579Z,133.35
2019-03-13T18:42:27.975Z,132.57
2019-03-13T18:44:54.961Z,132.37
2019-03-13T18:47:21.946Z,135.07
2019-03-13T18:49:48.915Z,134.35
2019-03-13T18:52:15.958Z,131.45
2019-03-13T18:54:42.855Z,131.82
2019-03-13T18:57:12.850Z,134.55
2019-03-13T18:59:39.849Z,132.57
2019-03-13T19:02:06.819Z,132.22
2019-03-13T19:04:33.785Z,131.00
2019-03-13T19:07:00.809Z,132.72
2019-03-13T19:09:29.256Z,130.45
2019-03-13T19:11:56.753Z,130.50
2019-03-13T19:14:23.835Z,131.18
2019-03-13T19:16:50.785Z,130.00
2019-03-13T19:19:17.738Z,131.63
2019-03-13T19:21:44.772Z,130.93
2019-03-13T19:24:12.026Z,129.50
2019-03-13T19:26:38.974Z,129.70
2019-03-13T19:29:06.400Z,129.82
2019-03-13T19:31:33.409Z,129.68
2019-03-13T19:34:00.407Z,129.82
2019-03-13T19:36:27.374Z,129.10
2019-03-13T19:38:54.347Z,129.55
2019-03-13T19:41:21.295Z,130.63
2019-03-13T19:43:48.287Z,129.55
2019-03-13T19:46:15.246Z,129.07
2019-03-13T19:48:42.536Z,128.87
2019-03-13T19:51:09.542Z,130.25
2019-03-13T19:53:36.505Z,128.70
2019-03-13T19:56:03.493Z,128.82
2019-03-13T19:58:30.856Z,129.60
2019-03-13T20:00:57.825Z,130.35
2019-03-13T20:03:25.446Z,130.27
2019-03-13T20:05:52.449Z,129.68
2019-03-13T20:08:19.719Z,129.75
2019-03-13T20:10:48.369Z,131.12
2019-03-13T20:13:15.486Z,130.63
2019-03-13T20:15:42.438Z,129.82
2019-03-13T20:18:09.399Z,128.25
2019-03-13T20:20:36.746Z,129.30
2019-03-13T20:23:03.820Z,130.50
2019-03-13T20:25:32.176Z,128.35
2019-03-13T20:27:59.709Z,130.75
2019-03-13T20:30:27.972Z,128.75
2019-03-13T20:32:54.913Z,128.72
2019-03-13T20:35:21.930Z,128.25
2019-03-13T20:37:49.053Z,128.30
2019-03-13T20:40:18.043Z,128.18
2019-03-13T20:42:45.420Z,128.90
2019-03-13T20:45:14.422Z,128.93
2019-03-13T20:47:41.846Z,128.57
2019-03-13T20:50:08.990Z,128.23
2019-03-13T20:52:36.166Z,127.60
2019-03-13T20:55:04.996Z,127.70
2019-03-13T20:57:31.988Z,127.60
2019-03-13T20:59:58.952Z,128.20
2019-03-13T21:02:26.244Z,128.42
2019-03-13T21:04:53.387Z,127.60
2019-03-13T21:07:23.767Z,128.10
2019-03-13T21:09:51.241Z,128.12
2019-03-13T21:12:18.452Z,130.15
2019-03-13T21:14:47.332Z,128.00
2019-03-13T21:17:14.391Z,127.53
2019-03-13T21:19:41.422Z,129.70
2019-03-13T21:22:08.616Z,129.82
2019-03-13T21:24:35.944Z,130.00
2019-03-13T21:27:03.054Z,130.67
2019-03-13T21:29:30.146Z,129.72
2019-03-13T21:31:57.111Z,129.50
2019-03-13T21:34:24.117Z,129.65
2019-03-13T21:36:52.449Z,129.87
2019-03-13T21:39:19.464Z,128.68
2019-03-13T21:41:46.556Z,129.12
2019-03-13T21:44:13.531Z,131.50
2019-03-13T21:46:40.647Z,129.15
2019-03-13T21:49:08.688Z,129.23
2019-03-13T21:51:35.716Z,129.87
2019-03-13T21:54:02.749Z,128.68
2019-03-13T21:56:30.068Z,129.75
2019-03-13T21:58:57.127Z,129.05
2019-03-13T22:01:24.073Z,128.97
2019-03-13T22:03:51.083Z,130.05
2019-03-13T22:06:28.159Z,129.53
2019-03-13T22:08:46.923Z,129.50
2019-03-13T22:11:14.358Z,129.93
2019-03-13T22:13:41.438Z,129.68
2019-03-13T22:16:08.502Z,129.40
2019-03-13T22:18:35.497Z,128.85
2019-03-13T22:21:02.451Z,130.20
2019-03-13T22:23:29.428Z,129.90
2019-03-13T22:25:56.445Z,128.97
2019-03-13T22:28:23.431Z,128.85
2019-03-13T22:30:50.419Z,129.10
2019-03-13T22:33:18.601Z,129.32
2019-03-13T22:35:45.550Z,128.45
2019-03-13T22:38:12.907Z,127.78
2019-03-13T22:40:39.905Z,126.95
2019-03-13T22:43:06.913Z,127.35
2019-03-13T22:45:33.916Z,127.80
2019-03-13T22:48:00.904Z,127.17
2019-03-13T22:50:27.881Z,127.90
2019-03-13T22:52:56.502Z,128.05
2019-03-13T22:55:23.498Z,128.20
2019-03-13T22:57:50.459Z,128.12
2019-03-13T23:00:52.842Z,128.20
2019-03-13T23:03:22.617Z,127.78
2019-03-13T23:05:50.156Z,128.25
2019-03-13T23:08:17.683Z,128.47
2019-03-13T23:10:46.473Z,128.30
2019-03-13T23:13:17.212Z,128.42
2019-03-13T23:15:43.857Z,127.50
2019-03-13T23:18:10.800Z,129.30
2019-03-13T23:20:38.198Z,128.53
2019-03-13T23:23:05.209Z,127.95
2019-03-13T23:25:32.174Z,128.18
2019-03-13T23:27:59.359Z,127.87
2019-03-13T23:30:26.358Z,127.72
2019-03-13T23:32:53.354Z,127.70
2019-03-13T23:35:20.797Z,127.75
2019-03-13T23:37:47.774Z,128.82
2019-03-13T23:40:15.252Z,126.90
2019-03-13T23:42:42.205Z,127.87
2019-03-13T23:45:10.001Z,128.05
2019-03-13T23:47:37.025Z,128.07
2019-03-13T23:50:04.780Z,126.90
2019-03-13T23:52:31.913Z,127.80
2019-03-13T23:54:58.877Z,129.65
2019-03-13T23:57:25.855Z,127.67
2019-03-13T23:59:52.838Z,128.18
